Shobdon, United Kingdom

3:39 AM BST on October 22, 2014 (GMT +0100)
Broxwood | Change Station
CLOSE
Current Station
Personal Weather Station
Location: Pembridge, HEREFORDSHIRE
Elevation: 515 ft
Nearby Weather Stations

Elev 515 ft 52.18 °N, 2.94 °W | Updated 6 seconds ago

Clear
Clear
46.3 °F
Feels Like 42 °F
N
8.1
Wind Variable Wind from NW
Gusts 8.1 mph

Today
High -- | Low -- °F
--% Chance of Precip.
Yesterday
High -- | Low -- °F
Precip. -- in
7:48 AM 6:02 PM
Waning Crescent, 3% visible
Pressure 30.18 in
Visibility -9999.0 miles
Clouds
Windchill 42 °F
Dew Point 41 °F
Humidity 82%
Rainfall 0.00 in
Snow Depth Not available.
UV 0.0 out of 12
Pollen Not available.
Air Quality Not available.
Flu Activity Not available.
METAR EGBB 220220Z 19004KT CAVOK 06/03 Q1022

More Conditions Fewer Conditions

Pressure 30.18 in
Visibility -9999.0 miles
Clouds
Windchill 42 °F
Dew Point 41 °F
Humidity 82%
Rainfall 0.00 in
Snow Depth Not available.
UV 0.0 out of 12
Pollen Not available.
Air Quality Not available.
Flu Activity Not available.
METAR EGBB 220220Z 19004KT CAVOK 06/03 Q1022

More Conditions Fewer Conditions

10-Day Weather Forecast

Almanac

Astronomy

Oct. 22, 2014 Rise Set
Actual Time 7:48 AM BST 6:02 PM BST
Civil Twilight 7:13 AM BST 6:37 PM BST
Nautical Twilight 6:34 AM BST 7:16 PM BST
Astronomical Twilight 5:55 AM BST 7:55 PM BST
Moon 6:05 AM BST 5:28 PM BST
Length of Visible Light 11h 23m
Length of Day
10h 13m
Tomorrow will be 3m 51s shorter.
Waning Crescent, 3% of the Moon is Illuminated
Oct 21
Waning Crescent
Oct 23
New
Oct 30
First Quarter
Nov 6
Full
Nov 14
Last Quarter

Yesterday's Extremes

Country Highs Country Lows

Community

WunderPhotos

Upload Photos

1,763,862 photos uploaded!

Nearby

Snow Depth

Not available.

Earthquake Activity

City Distance Mag. Time & Date
No recent earthquake activity has been reported nearby.
Minimum magnitude displayed is 2.5.

Coastal Water Temperatures

Place Temperature
No Stations Reporting

Nearby Weather Stations